sensor_id;sensor_type;location;lat;lon;timestamp;pressure;altitude;pressure_sealevel;temperature;humidity
79703;BME280;69172;52.352;5.006;2023-11-19T00:00:30;100697.84;;;13.44;100.00
79703;BME280;69172;52.352;5.006;2023-11-19T00:02:55;100703.81;;;13.43;100.00
79703;BME280;69172;52.352;5.006;2023-11-19T00:05:21;100700.69;;;13.50;100.00
79703;BME280;69172;52.352;5.006;2023-11-19T00:07:46;100687.56;;;13.46;100.00
79703;BME280;69172;52.352;5.006;2023-11-19T00:10:16;100702.94;;;13.43;100.00
79703;BME280;69172;52.352;5.006;2023-11-19T00:12:45;100702.00;;;13.41;100.00
79703;BME280;69172;52.352;5.006;2023-11-19T00:15:13;100703.63;;;13.39;100.00
79703;BME280;69172;52.352;5.006;2023-11-19T00:17:43;100695.09;;;13.40;100.00
79703;BME280;69172;52.352;5.006;2023-11-19T00:20:11;100690.63;;;13.37;100.00
79703;BME280;69172;52.352;5.006;2023-11-19T00:22:36;100675.72;;;13.30;100.00
79703;BME280;69172;52.352;5.006;2023-11-19T00:25:02;100670.28;;;13.24;100.00
79703;BME280;69172;52.352;5.006;2023-11-19T00:27:29;100677.97;;;13.23;100.00
79703;BME280;69172;52.352;5.006;2023-11-19T00:29:56;100664.94;;;13.20;100.00
79703;BME280;69172;52.352;5.006;2023-11-19T00:32:23;100668.31;;;13.19;100.00
79703;BME280;69172;52.352;5.006;2023-11-19T00:34:48;100652.69;;;13.16;100.00
79703;BME280;69172;52.352;5.006;2023-11-19T00:37:14;100665.59;;;13.16;100.00
79703;BME280;69172;52.352;5.006;2023-11-19T00:39:43;100670.59;;;13.11;100.00
79703;BME280;69172;52.352;5.006;2023-11-19T00:42:09;100686.03;;;13.09;100.00
79703;BME280;69172;52.352;5.006;2023-11-19T00:44:36;100678.91;;;13.05;100.00
79703;BME280;69172;52.352;5.006;2023-11-19T00:47:02;100671.88;;;13.01;100.00
79703;BME280;69172;52.352;5.006;2023-11-19T00:49:27;100656.94;;;12.94;100.00
79703;BME280;69172;52.352;5.006;2023-11-19T00:51:53;100670.91;;;12.99;100.00
79703;BME280;69172;52.352;5.006;2023-11-19T00:54:18;100661.56;;;13.01;100.00
79703;BME280;69172;52.352;5.006;2023-11-19T00:56:43;100680.47;;;13.02;100.00
79703;BME280;69172;52.352;5.006;2023-11-19T00:59:11;100670.91;;;12.99;100.00
79703;BME280;69172;52.352;5.006;2023-11-19T01:01:36;100674.06;;;12.92;100.00
79703;BME280;69172;52.352;5.006;2023-11-19T01:04:01;100670.91;;;12.99;100.00
79703;BME280;69172;52.352;5.006;2023-11-19T01:06:28;100666.31;;;12.92;100.00
79703;BME280;69172;52.352;5.006;2023-11-19T01:08:54;100664.53;;;12.91;100.00
79703;BME280;69172;52.352;5.006;2023-11-19T01:11:20;100654.47;;;12.97;100.00
79703;BME280;69172;52.352;5.006;2023-11-19T01:13:47;100650.97;;;12.95;100.00
79703;BME280;69172;52.352;5.006;2023-11-19T01:16:14;100650.03;;;12.93;100.00
79703;BME280;69172;52.352;5.006;2023-11-19T01:18:39;100642.28;;;12.93;100.00
79703;BME280;69172;52.352;5.006;2023-11-19T01:21:06;100641.66;;;12.99;100.00
79703;BME280;69172;52.352;5.006;2023-11-19T01:23:31;100641.53;;;12.96;100.00
79703;BME280;69172;52.352;5.006;2023-11-19T01:25:58;100635.47;;;12.95;100.00
79703;BME280;69172;52.352;5.006;2023-11-19T01:28:23;100630.19;;;12.92;100.00
79703;BME280;69172;52.352;5.006;2023-11-19T01:30:53;100636.09;;;12.90;100.00
79703;BME280;69172;52.352;5.006;2023-11-19T01:33:19;100628.25;;;12.88;100.00
79703;BME280;69172;52.352;5.006;2023-11-19T01:35:47;100636.13;;;12.91;100.00
79703;BME280;69172;52.352;5.006;2023-11-19T01:38:32;100638.72;;;12.91;100.00
79703;BME280;69172;52.352;5.006;2023-11-19T01:40:57;100633.69;;;12.94;100.00
79703;BME280;69172;52.352;5.006;2023-11-19T01:43:36;100638.47;;;12.85;100.00
79703;BME280;69172;52.352;5.006;2023-11-19T01:46:10;100652.06;;;12.81;100.00
79703;BME280;69172;52.352;5.006;2023-11-19T01:48:40;100646.91;;;12.81;100.00
79703;BME280;69172;52.352;5.006;2023-11-19T01:51:08;100655.56;;;12.83;100.00
79703;BME280;69172;52.352;5.006;2023-11-19T01:53:35;100652.09;;;12.83;100.00
79703;BME280;69172;52.352;5.006;2023-11-19T01:56:03;100666.94;;;12.87;100.00
79703;BME280;69172;52.352;5.006;2023-11-19T01:58:29;100661.72;;;12.85;100.00
79703;BME280;69172;52.352;5.006;2023-11-19T02:00:56;100660.00;;;12.86;100.00
79703;BME280;69172;52.352;5.006;2023-11-19T02:03:22;100635.06;;;12.86;100.00
79703;BME280;69172;52.352;5.006;2023-11-19T02:05:49;100645.25;;;12.83;100.00
79703;BME280;69172;52.352;5.006;2023-11-19T02:08:16;100642.63;;;12.82;100.00
79703;BME280;69172;52.352;5.006;2023-11-19T02:10:45;100656.19;;;12.78;100.00
79703;BME280;69172;52.352;5.006;2023-11-19T02:13:10;100660.75;;;12.83;100.00
79703;BME280;69172;52.352;5.006;2023-11-19T02:15:37;100646.75;;;12.78;100.00
79703;BME280;69172;52.352;5.006;2023-11-19T02:18:21;100649.19;;;12.75;100.00
79703;BME280;69172;52.352;5.006;2023-11-19T02:20:51;100646.47;;;12.72;100.00
79703;BME280;69172;52.352;5.006;2023-11-19T02:23:18;100649.06;;;12.72;100.00
79703;BME280;69172;52.352;5.006;2023-11-19T02:28:36;100651.66;;;12.72;100.00
79703;BME280;69172;52.352;5.006;2023-11-19T02:31:02;100657.69;;;12.73;100.00
79703;BME280;69172;52.352;5.006;2023-11-19T02:33:29;100654.09;;;12.69;100.00
79703;BME280;69172;52.352;5.006;2023-11-19T02:35:55;100649.06;;;12.72;100.00
79703;BME280;69172;52.352;5.006;2023-11-19T02:38:21;100648.31;;;12.75;100.00
79703;BME280;69172;52.352;5.006;2023-11-19T02:40:47;100643.09;;;12.73;100.00
79703;BME280;69172;52.352;5.006;2023-11-19T02:43:14;100621.53;;;12.71;100.00
79703;BME280;69172;52.352;5.006;2023-11-19T02:45:39;100632.59;;;12.69;100.00
79703;BME280;69172;52.352;5.006;2023-11-19T02:48:05;100634.00;;;12.62;100.00
79703;BME280;69172;52.352;5.006;2023-11-19T02:50:31;100632.31;;;12.63;100.00
79703;BME280;69172;52.352;5.006;2023-11-19T02:52:57;100629.53;;;12.58;100.00
79703;BME280;69172;52.352;5.006;2023-11-19T02:55:24;100629.31;;;12.53;100.00
79703;BME280;69172;52.352;5.006;2023-11-19T02:57:50;100638.63;;;12.50;100.00
79703;BME280;69172;52.352;5.006;2023-11-19T03:00:19;100635.09;;;12.48;100.00
79703;BME280;69172;52.352;5.006;2023-11-19T03:02:49;100640.94;;;12.44;100.00
79703;BME280;69172;52.352;5.006;2023-11-19T03:05:24;100642.50;;;12.40;100.00
79703;BME280;69172;52.352;5.006;2023-11-19T03:07:49;100648.41;;;12.38;100.00
79703;BME280;69172;52.352;5.006;2023-11-19T03:10:14;100661.63;;;12.45;100.00
79703;BME280;69172;52.352;5.006;2023-11-19T03:12:41;100642.69;;;12.45;100.00
79703;BME280;69172;52.352;5.006;2023-11-19T03:15:06;100654.78;;;12.46;100.00
79703;BME280;69172;52.352;5.006;2023-11-19T03:17:33;100641.69;;;12.41;100.00
79703;BME280;69172;52.352;5.006;2023-11-19T03:20:00;100638.88;;;12.37;100.00
79703;BME280;69172;52.352;5.006;2023-11-19T03:22:26;100630.19;;;12.35;100.00
79703;BME280;69172;52.352;5.006;2023-11-19T03:24:51;100651.56;;;12.32;100.00
79703;BME280;69172;52.352;5.006;2023-11-19T03:27:17;100648.06;;;12.30;100.00
79703;BME280;69172;52.352;5.006;2023-11-19T03:29:42;100641.06;;;12.28;100.00
79703;BME280;69172;52.352;5.006;2023-11-19T03:32:08;100638.63;;;12.31;100.00
79703;BME280;69172;52.352;5.006;2023-11-19T03:34:33;100644.59;;;12.30;100.00
79703;BME280;69172;52.352;5.006;2023-11-19T03:36:59;100633.94;;;12.22;100.00
79703;BME280;69172;52.352;5.006;2023-11-19T03:39:24;100643.69;;;12.29;100.00
79703;BME280;69172;52.352;5.006;2023-11-19T03:41:50;100637.78;;;12.32;100.00
79703;BME280;69172;52.352;5.006;2023-11-19T03:44:16;100645.38;;;12.29;100.00
79703;BME280;69172;52.352;5.006;2023-11-19T03:46:42;100648.06;;;12.30;100.00
79703;BME280;69172;52.352;5.006;2023-11-19T03:49:08;100645.75;;;12.36;100.00
79703;BME280;69172;52.352;5.006;2023-11-19T03:51:33;100648.41;;;12.38;100.00
79703;BME280;69172;52.352;5.006;2023-11-19T03:54:00;100642.34;;;12.37;100.00
79703;BME280;69172;52.352;5.006;2023-11-19T03:56:25;100644.13;;;12.38;100.00
79703;BME280;69172;52.352;5.006;2023-11-19T03:58:52;100639.63;;;12.34;100.00
79703;BME280;69172;52.352;5.006;2023-11-19T04:01:17;100647.16;;;12.30;100.00
79703;BME280;69172;52.352;5.006;2023-11-19T04:03:43;100650.53;;;12.29;100.00
79703;BME280;69172;52.352;5.006;2023-11-19T04:06:09;100638.41;;;12.26;100.00
79703;BME280;69172;52.352;5.006;2023-11-19T04:08:34;100652.03;;;12.24;100.00
79703;BME280;69172;52.352;5.006;2023-11-19T04:11:03;100655.34;;;12.21;100.00
79703;BME280;69172;52.352;5.006;2023-11-19T04:13:30;100653.53;;;12.19;100.00
79703;BME280;69172;52.352;5.006;2023-11-19T04:15:55;100657.50;;;12.12;100.00
79703;BME280;69172;52.352;5.006;2023-11-19T04:18:22;100645.34;;;12.10;100.00
79703;BME280;69172;52.352;5.006;2023-11-19T04:20:48;100665.13;;;12.09;100.00
79703;BME280;69172;52.352;5.006;2023-11-19T04:23:13;100668.31;;;12.04;100.00
79703;BME280;69172;52.352;5.006;2023-11-19T04:25:39;100660.56;;;12.04;100.00
79703;BME280;69172;52.352;5.006;2023-11-19T04:28:04;100662.25;;;12.03;100.00
79703;BME280;69172;52.352;5.006;2023-11-19T04:30:30;100671.88;;;12.07;100.00
79703;BME280;69172;52.352;5.006;2023-11-19T04:32:57;100663.94;;;12.03;100.00
79703;BME280;69172;52.352;5.006;2023-11-19T04:35:23;100667.91;;;11.96;100.00
79703;BME280;69172;52.352;5.006;2023-11-19T04:37:48;100664.38;;;11.94;100.00
79703;BME280;69172;52.352;5.006;2023-11-19T04:40:14;100662.75;;;11.96;100.00
79703;BME280;69172;52.352;5.006;2023-11-19T04:42:40;100661.97;;;11.97;100.00
79703;BME280;69172;52.352;5.006;2023-11-19T04:45:06;100684.56;;;12.03;100.00
79703;BME280;69172;52.352;5.006;2023-11-19T04:47:33;100652.16;;;12.08;100.00
79703;BME280;69172;52.352;5.006;2023-11-19T04:49:59;100663.69;;;12.16;100.00
79703;BME280;69172;52.352;5.006;2023-11-19T04:52:25;100659.72;;;12.22;100.00
79703;BME280;69172;52.352;5.006;2023-11-19T04:54:50;100644.09;;;12.19;100.00
79703;BME280;69172;52.352;5.006;2023-11-19T04:57:16;100659.56;;;12.19;100.00
79703;BME280;69172;52.352;5.006;2023-11-19T04:59:42;100647.56;;;12.20;100.00
79703;BME280;69172;52.352;5.006;2023-11-19T05:02:08;100653.81;;;12.25;100.00
79703;BME280;69172;52.352;5.006;2023-11-19T05:04:33;100654.09;;;12.31;100.00
79703;BME280;69172;52.352;5.006;2023-11-19T05:06:59;100657.44;;;12.28;100.00
79703;BME280;69172;52.352;5.006;2023-11-19T05:09:25;100644.00;;;12.18;100.00
79703;BME280;69172;52.352;5.006;2023-11-19T05:11:50;100648.09;;;12.13;100.00
79703;BME280;69172;52.352;5.006;2023-11-19T05:14:16;100650.47;;;12.08;100.00
79703;BME280;69172;52.352;5.006;2023-11-19T05:16:41;100651.25;;;12.07;100.00
79703;BME280;69172;52.352;5.006;2023-11-19T05:19:08;100668.41;;;12.07;100.00
79703;BME280;69172;52.352;5.006;2023-11-19T05:21:36;100655.47;;;12.05;100.00
79703;BME280;69172;52.352;5.006;2023-11-19T05:24:03;100665.44;;;11.98;100.00
79703;BME280;69172;52.352;5.006;2023-11-19T05:26:32;100680.00;;;11.97;100.00
79703;BME280;69172;52.352;5.006;2023-11-19T05:28:57;100666.16;;;11.95;100.00
79703;BME280;69172;52.352;5.006;2023-11-19T05:31:22;100654.97;;;11.94;100.00
79703;BME280;69172;52.352;5.006;2023-11-19T05:33:49;100662.16;;;12.02;100.00
79703;BME280;69172;52.352;5.006;2023-11-19T05:36:32;100664.09;;;12.06;100.00
79703;BME280;69172;52.352;5.006;2023-11-19T05:39:01;100668.34;;;12.05;100.00
79703;BME280;69172;52.352;5.006;2023-11-19T05:41:28;100664.97;;;12.06;100.00
79703;BME280;69172;52.352;5.006;2023-11-19T05:43:54;100663.16;;;12.04;100.00
79703;BME280;69172;52.352;5.006;2023-11-19T05:46:19;100659.69;;;12.03;100.00
79703;BME280;69172;52.352;5.006;2023-11-19T05:48:45;100655.31;;;12.02;100.00
79703;BME280;69172;52.352;5.006;2023-11-19T05:51:11;100656.22;;;12.03;100.00
79703;BME280;69172;52.352;5.006;2023-11-19T05:53:43;100676.84;;;12.03;100.00
79703;BME280;69172;52.352;5.006;2023-11-19T05:56:11;100691.50;;;12.04;100.00
79703;BME280;69172;52.352;5.006;2023-11-19T05:58:37;100683.06;;;12.08;100.00
79703;BME280;69172;52.352;5.006;2023-11-19T06:01:02;100659.31;;;11.96;100.00
79703;BME280;69172;52.352;5.006;2023-11-19T06:03:30;100678.59;;;12.04;100.00
79703;BME280;69172;52.352;5.006;2023-11-19T06:05:56;100663.75;;;11.98;100.00
79703;BME280;69172;52.352;5.006;2023-11-19T06:08:21;100679.25;;;12.00;100.00
79703;BME280;69172;52.352;5.006;2023-11-19T06:10:47;100679.13;;;11.97;100.00
79703;BME280;69172;52.352;5.006;2023-11-19T06:13:13;100675.06;;;12.02;100.00
79703;BME280;69172;52.352;5.006;2023-11-19T06:15:41;100676.16;;;12.07;100.00
79703;BME280;69172;52.352;5.006;2023-11-19T06:18:08;100670.00;;;12.03;100.00
79703;BME280;69172;52.352;5.006;2023-11-19T06:20:34;100672.31;;;11.99;100.00
79703;BME280;69172;52.352;5.006;2023-11-19T06:23:00;100652.44;;;11.96;100.00
79703;BME280;69172;52.352;5.006;2023-11-19T06:25:26;100668.94;;;12.00;100.00
79703;BME280;69172;52.352;5.006;2023-11-19T06:27:52;100657.59;;;11.96;100.00
79703;BME280;69172;52.352;5.006;2023-11-19T06:30:18;100673.81;;;11.93;100.00
79703;BME280;69172;52.352;5.006;2023-11-19T06:32:44;100654.09;;;11.94;100.00
79703;BME280;69172;52.352;5.006;2023-11-19T06:35:09;100654.47;;;11.84;100.00
79703;BME280;69172;52.352;5.006;2023-11-19T06:37:37;100668.59;;;11.92;100.00
79703;BME280;69172;52.352;5.006;2023-11-19T06:40:04;100659.63;;;11.84;100.00
79703;BME280;69172;52.352;5.006;2023-11-19T06:42:36;100673.25;;;11.81;100.00
79703;BME280;69172;52.352;5.006;2023-11-19T06:45:02;100663.81;;;11.82;100.00
79703;BME280;69172;52.352;5.006;2023-11-19T06:47:28;100680.03;;;11.79;100.00
79703;BME280;69172;52.352;5.006;2023-11-19T06:49:54;100668.59;;;11.74;100.00
79703;BME280;69172;52.352;5.006;2023-11-19T06:52:22;100668.97;;;11.82;100.00
79703;BME280;69172;52.352;5.006;2023-11-19T06:54:47;100670.66;;;11.81;100.00
79703;BME280;69172;52.352;5.006;2023-11-19T06:57:13;100672.50;;;11.84;100.00
79703;BME280;69172;52.352;5.006;2023-11-19T06:59:38;100679.19;;;11.80;100.00
79703;BME280;69172;52.352;5.006;2023-11-19T07:02:04;100679.88;;;11.76;100.00
79703;BME280;69172;52.352;5.006;2023-11-19T07:04:31;100692.44;;;11.88;100.00
79703;BME280;69172;52.352;5.006;2023-11-19T07:06:56;100695.00;;;11.88;100.00
79703;BME280;69172;52.352;5.006;2023-11-19T07:09:23;100696.78;;;11.89;100.00
79703;BME280;69172;52.352;5.006;2023-11-19T07:11:48;100695.31;;;11.94;100.00
79703;BME280;69172;52.352;5.006;2023-11-19T07:14:15;100699.72;;;11.97;100.00
79703;BME280;69172;52.352;5.006;2023-11-19T07:16:42;100699.88;;;12.00;100.00
79703;BME280;69172;52.352;5.006;2023-11-19T07:19:08;100705.25;;;12.04;100.00
79703;BME280;69172;52.352;5.006;2023-11-19T07:21:34;100710.34;;;12.03;100.00
79703;BME280;69172;52.352;5.006;2023-11-19T07:24:02;100705.34;;;12.06;100.00
79703;BME280;69172;52.352;5.006;2023-11-19T07:26:27;100700.22;;;12.07;100.00
79703;BME280;69172;52.352;5.006;2023-11-19T07:28:53;100696.13;;;12.11;100.00
79703;BME280;69172;52.352;5.006;2023-11-19T07:31:19;100707.22;;;12.10;100.00
79703;BME280;69172;52.352;5.006;2023-11-19T07:33:46;100702.06;;;12.10;100.00
79703;BME280;69172;52.352;5.006;2023-11-19T07:36:13;100708.25;;;12.13;100.00
79703;BME280;69172;52.352;5.006;2023-11-19T07:38:38;100703.19;;;12.15;100.00
79703;BME280;69172;52.352;5.006;2023-11-19T07:41:05;100709.66;;;12.24;100.00
79703;BME280;69172;52.352;5.006;2023-11-19T07:43:32;100724.22;;;12.24;100.00
79703;BME280;69172;52.352;5.006;2023-11-19T07:45:59;100710.44;;;12.23;100.00
79703;BME280;69172;52.352;5.006;2023-11-19T07:48:26;100714.59;;;12.20;100.00
79703;BME280;69172;52.352;5.006;2023-11-19T07:50:52;100703.31;;;12.18;100.00
79703;BME280;69172;52.352;5.006;2023-11-19T07:53:18;100710.03;;;12.14;100.00
79703;BME280;69172;52.352;5.006;2023-11-19T07:55:44;100722.41;;;12.21;100.00
79703;BME280;69172;52.352;5.006;2023-11-19T07:58:10;100713.03;;;12.23;100.00
79703;BME280;69172;52.352;5.006;2023-11-19T08:00:36;100713.84;;;12.22;100.00
79703;BME280;69172;52.352;5.006;2023-11-19T08:03:03;100704.16;;;12.17;100.00
79703;BME280;69172;52.352;5.006;2023-11-19T08:05:28;100714.38;;;12.15;100.00
79703;BME280;69172;52.352;5.006;2023-11-19T08:07:53;100704.06;;;12.15;100.00
79703;BME280;69172;52.352;5.006;2023-11-19T08:10:19;100699.72;;;12.14;100.00
79703;BME280;69172;52.352;5.006;2023-11-19T08:12:45;100696.41;;;12.17;100.00
79703;BME280;69172;52.352;5.006;2023-11-19T08:15:10;100702.13;;;12.29;100.00
79703;BME280;69172;52.352;5.006;2023-11-19T08:17:42;100699.53;;;12.29;100.00
79703;BME280;69172;52.352;5.006;2023-11-19T08:20:11;100702.94;;;12.28;100.00
79703;BME280;69172;52.352;5.006;2023-11-19T08:22:44;100715.91;;;12.29;100.00
79703;BME280;69172;52.352;5.006;2023-11-19T08:25:09;100702.34;;;12.33;100.00
79703;BME280;69172;52.352;5.006;2023-11-19T08:27:34;100720.59;;;12.38;100.00
79703;BME280;69172;52.352;5.006;2023-11-19T08:30:00;100725.03;;;12.40;100.00
79703;BME280;69172;52.352;5.006;2023-11-19T08:32:26;100723.03;;;12.35;100.00
79703;BME280;69172;52.352;5.006;2023-11-19T08:34:52;100713.66;;;12.37;100.00
79703;BME280;69172;52.352;5.006;2023-11-19T08:37:17;100716.84;;;12.31;100.00
79703;BME280;69172;52.352;5.006;2023-11-19T08:39:49;100724.53;;;12.30;100.00
79703;BME280;69172;52.352;5.006;2023-11-19T08:42:15;100721.06;;;12.29;100.00
79703;BME280;69172;52.352;5.006;2023-11-19T08:44:41;100709.19;;;12.33;100.00
79703;BME280;69172;52.352;5.006;2023-11-19T08:47:11;100722.38;;;12.39;100.00
79703;BME280;69172;52.352;5.006;2023-11-19T08:49:37;100722.59;;;12.43;100.00
79703;BME280;69172;52.352;5.006;2023-11-19T08:52:04;100682.88;;;12.40;100.00
79703;BME280;69172;52.352;5.006;2023-11-19T08:54:30;100714.38;;;12.52;100.00
79703;BME280;69172;52.352;5.006;2023-11-19T08:56:57;100723.03;;;12.52;100.00
79703;BME280;69172;52.352;5.006;2023-11-19T08:59:22;100720.69;;;12.59;100.00
79703;BME280;69172;52.352;5.006;2023-11-19T09:01:48;100710.47;;;12.60;100.00
79703;BME280;69172;52.352;5.006;2023-11-19T09:04:14;100716.28;;;12.56;100.00
79703;BME280;69172;52.352;5.006;2023-11-19T09:06:42;100719.75;;;12.57;100.00
79703;BME280;69172;52.352;5.006;2023-11-19T09:09:08;100717.16;;;12.57;100.00
79703;BME280;69172;52.352;5.006;2023-11-19T09:11:33;100709.09;;;12.68;100.00
79703;BME280;69172;52.352;5.006;2023-11-19T09:14:00;100704.84;;;12.69;100.00
79703;BME280;69172;52.352;5.006;2023-11-19T09:16:25;100696.47;;;12.74;100.00
79703;BME280;69172;52.352;5.006;2023-11-19T09:18:50;100705.84;;;12.72;100.00
79703;BME280;69172;52.352;5.006;2023-11-19T09:21:17;100718.72;;;12.72;100.00
79703;BME280;69172;52.352;5.006;2023-11-19T09:23:44;100716.84;;;12.68;100.00
79703;BME280;69172;52.352;5.006;2023-11-19T09:26:11;100712.50;;;12.67;100.00
79703;BME280;69172;52.352;5.006;2023-11-19T09:28:36;100703.84;;;12.67;100.00
79703;BME280;69172;52.352;5.006;2023-11-19T09:31:02;100713.44;;;12.69;100.00
79703;BME280;69172;52.352;5.006;2023-11-19T09:33:30;100708.78;;;12.80;100.00
79703;BME280;69172;52.352;5.006;2023-11-19T09:35:56;100714.75;;;12.79;100.00
79703;BME280;69172;52.352;5.006;2023-11-19T09:38:23;100702.88;;;12.82;100.00
79703;BME280;69172;52.352;5.006;2023-11-19T09:40:48;100702.03;;;12.83;100.00
79703;BME280;69172;52.352;5.006;2023-11-19T09:43:16;100706.13;;;12.78;100.00
79703;BME280;69172;52.352;5.006;2023-11-19T09:45:48;100718.13;;;12.78;100.00
79703;BME280;69172;52.352;5.006;2023-11-19T09:48:17;100705.38;;;12.81;100.00
79703;BME280;69172;52.352;5.006;2023-11-19T09:50:45;100705.38;;;12.81;100.00
79703;BME280;69172;52.352;5.006;2023-11-19T09:53:13;100696.63;;;12.77;100.00
79703;BME280;69172;52.352;5.006;2023-11-19T09:55:39;100706.06;;;12.77;100.00
79703;BME280;69172;52.352;5.006;2023-11-19T09:58:05;100712.78;;;12.73;100.00
79703;BME280;69172;52.352;5.006;2023-11-19T10:00:32;100707.63;;;12.73;100.00
79703;BME280;69172;52.352;5.006;2023-11-19T10:02:59;100705.44;;;12.82;100.00
79703;BME280;69172;52.352;5.006;2023-11-19T10:05:24;100699.69;;;12.88;100.00
79703;BME280;69172;52.352;5.006;2023-11-19T10:07:51;100714.31;;;12.89;100.00
79703;BME280;69172;52.352;5.006;2023-11-19T10:10:18;100705.44;;;13.01;100.00
79703;BME280;69172;52.352;5.006;2023-11-19T10:12:47;100711.69;;;13.06;100.00
79703;BME280;69172;52.352;5.006;2023-11-19T10:15:20;100703.34;;;13.12;100.00
79703;BME280;69172;52.352;5.006;2023-11-19T10:17:47;100711.00;;;13.10;99.82
79703;BME280;69172;52.352;5.006;2023-11-19T10:20:13;100688.66;;;13.11;99.14
79703;BME280;69172;52.352;5.006;2023-11-19T10:22:38;100698.84;;;13.08;97.79
79703;BME280;69172;52.352;5.006;2023-11-19T10:25:04;100700.38;;;13.04;97.11
79703;BME280;69172;52.352;5.006;2023-11-19T10:27:34;100685.06;;;13.07;97.31
79703;BME280;69172;52.352;5.006;2023-11-19T10:29:59;100697.16;;;13.08;97.05
79703;BME280;69172;52.352;5.006;2023-11-19T10:32:27;100695.38;;;13.07;98.10
79703;BME280;69172;52.352;5.006;2023-11-19T10:35:14;100688.75;;;12.93;100.00
79703;BME280;69172;52.352;5.006;2023-11-19T10:37:39;100698.09;;;12.72;100.00
79703;BME280;69172;52.352;5.006;2023-11-19T10:40:05;100704.41;;;12.60;100.00
79703;BME280;69172;52.352;5.006;2023-11-19T10:42:31;100694.88;;;12.59;100.00
79703;BME280;69172;52.352;5.006;2023-11-19T10:44:56;100703.84;;;12.67;100.00
79703;BME280;69172;52.352;5.006;2023-11-19T10:47:22;100714.47;;;12.73;100.00
79703;BME280;69172;52.352;5.006;2023-11-19T10:49:48;100703.53;;;12.78;100.00
79703;BME280;69172;52.352;5.006;2023-11-19T10:52:17;100704.84;;;12.88;100.00
79703;BME280;69172;52.352;5.006;2023-11-19T10:54:44;100708.78;;;12.99;100.00
79703;BME280;69172;52.352;5.006;2023-11-19T10:57:12;100708.28;;;13.07;99.81
79703;BME280;69172;52.352;5.006;2023-11-19T10:59:43;100702.59;;;13.15;98.41
79703;BME280;69172;52.352;5.006;2023-11-19T11:02:14;100705.69;;;13.27;96.46
79703;BME280;69172;52.352;5.006;2023-11-19T11:04:44;100700.34;;;13.22;96.31
79703;BME280;69172;52.352;5.006;2023-11-19T11:07:12;100695.34;;;13.27;95.19
79703;BME280;69172;52.352;5.006;2023-11-19T11:09:44;100694.50;;;13.26;94.59
79703;BME280;69172;52.352;5.006;2023-11-19T11:12:12;100687.88;;;13.33;94.75
79703;BME280;69172;52.352;5.006;2023-11-19T11:14:38;100690.53;;;13.34;93.96
79703;BME280;69172;52.352;5.006;2023-11-19T11:17:06;100691.06;;;13.27;93.44
79703;BME280;69172;52.352;5.006;2023-11-19T11:19:34;100689.34;;;13.26;93.28
79703;BME280;69172;52.352;5.006;2023-11-19T11:22:00;100702.34;;;13.29;93.25
79703;BME280;69172;52.352;5.006;2023-11-19T11:24:35;100695.34;;;13.27;94.11
79703;BME280;69172;52.352;5.006;2023-11-19T11:32:43;100691.16;;;13.29;94.19
79703;BME280;69172;52.352;5.006;2023-11-19T11:35:40;100685.03;;;13.27;93.38
79703;BME280;69172;52.352;5.006;2023-11-19T11:38:14;100701.34;;;13.26;92.71
79703;BME280;69172;52.352;5.006;2023-11-19T11:40:40;100688.38;;;13.24;92.86
79703;BME280;69172;52.352;5.006;2023-11-19T11:43:44;100666.16;;;13.28;91.48
79703;BME280;69172;52.352;5.006;2023-11-19T11:49:03;100680.69;;;13.26;89.81
79703;BME280;69172;52.352;5.006;2023-11-19T11:57:14;100670.28;;;13.24;90.21
79703;BME280;69172;52.352;5.006;2023-11-19T11:59:45;100672.31;;;13.31;90.18
79703;BME280;69172;52.352;5.006;2023-11-19T12:02:13;100681.31;;;13.41;89.88
79703;BME280;69172;52.352;5.006;2023-11-19T12:04:39;100692.09;;;13.51;88.89
79703;BME280;69172;52.352;5.006;2023-11-19T12:07:12;100668.16;;;13.55;88.91
79703;BME280;69172;52.352;5.006;2023-11-19T12:09:40;100662.13;;;13.55;89.32
79703;BME280;69172;52.352;5.006;2023-11-19T12:15:16;100674.50;;;13.43;89.78
79703;BME280;69172;52.352;5.006;2023-11-19T12:17:46;100660.41;;;13.35;90.73
79703;BME280;69172;52.352;5.006;2023-11-19T12:20:16;100654.38;;;13.34;89.87
79703;BME280;69172;52.352;5.006;2023-11-19T12:22:43;100666.31;;;13.32;90.38
79703;BME280;69172;52.352;5.006;2023-11-19T12:25:11;100675.91;;;13.35;90.98
79703;BME280;69172;52.352;5.006;2023-11-19T12:28:00;100665.50;;;13.33;90.99
79703;BME280;69172;52.352;5.006;2023-11-19T12:30:25;100669.66;;;13.30;91.41
79703;BME280;69172;52.352;5.006;2023-11-19T12:32:52;100669.75;;;13.31;91.32
79703;BME280;69172;52.352;5.006;2023-11-19T12:35:19;100672.06;;;13.25;91.70
79703;BME280;69172;52.352;5.006;2023-11-19T12:37:46;100671.97;;;13.24;92.42
79703;BME280;69172;52.352;5.006;2023-11-19T12:42:41;100666.59;;;13.18;92.55
79703;BME280;69172;52.352;5.006;2023-11-19T12:45:13;100671.63;;;13.15;92.94
79703;BME280;69172;52.352;5.006;2023-11-19T12:47:44;100663.16;;;13.19;91.73
79703;BME280;69172;52.352;5.006;2023-11-19T12:50:14;100660.97;;;13.28;91.48
79703;BME280;69172;52.352;5.006;2023-11-19T12:52:41;100666.72;;;13.21;92.53
79703;BME280;69172;52.352;5.006;2023-11-19T12:55:33;100669.16;;;13.18;92.18
79703;BME280;69172;52.352;5.006;2023-11-19T12:58:06;100662.22;;;13.17;91.71
79703;BME280;69172;52.352;5.006;2023-11-19T13:00:32;100672.59;;;13.18;91.93
79703;BME280;69172;52.352;5.006;2023-11-19T13:02:58;100660.78;;;13.23;91.65